Time;durP1;ratioP1;P1;durP2;ratioP2;P2;SDS_P1;SDS_P2;PMS_P1;PMS_P2;Temp;Humidity;BMP_temperature;BMP_pressure;BME280_temperature;BME280_humidity;BME280_pressure;Samples;Min_cycle;Max_cycle;Signal;HPM_P1;HPM_P2
2023/02/15 00:01:33;;;;;;;3.08;2.88;;;7.60;94.30;;;;;;5025168;28;20283;-73
2023/02/15 00:04:00;;;;;;;3.10;2.90;;;7.60;94.20;;;;;;5027022;28;21307;-73
2023/02/15 00:06:27;;;;;;;3.35;3.10;;;7.60;94.20;;;;;;5024966;28;20287;-73
2023/02/15 00:08:55;;;;;;;2.83;2.63;;;7.60;94.30;;;;;;5029147;28;20310;-73
2023/02/15 00:14:05;;;;;;;3.00;2.80;;;7.50;94.50;;;;;;5027311;28;20208;-73
2023/02/15 00:16:32;;;;;;;2.75;2.47;;;7.40;94.60;;;;;;5028157;28;20219;-73
2023/02/15 00:19:01;;;;;;;2.72;2.53;;;7.20;94.50;;;;;;5027189;28;20330;-73
2023/02/15 00:21:29;;;;;;;3.28;2.97;;;7.20;94.60;;;;;;5031032;28;20195;-73
2023/02/15 00:23:56;;;;;;;2.65;2.45;;;7.10;94.60;;;;;;5025014;28;20220;-73
2023/02/15 00:26:25;;;;;;;2.92;2.72;;;7.10;94.70;;;;;;5011210;28;20231;-74
2023/02/15 00:28:52;;;;;;;2.70;2.50;;;7.00;94.90;;;;;;5028756;28;20299;-74
2023/02/15 00:31:20;;;;;;;2.70;2.50;;;7.00;95.00;;;;;;5026708;28;20888;-74
2023/02/15 00:33:47;;;;;;;2.33;2.22;;;6.90;95.10;;;;;;5030355;28;20294;-74
2023/02/15 00:36:15;;;;;;;2.97;2.78;;;6.90;95.20;;;;;;5030624;28;20242;-74
2023/02/15 00:38:41;;;;;;;3.00;2.80;;;6.90;95.40;;;;;;5033472;28;20307;-74
2023/02/15 00:41:10;;;;;;;2.55;2.35;;;6.90;95.50;;;;;;5008566;28;20203;-74
2023/02/15 00:43:38;;;;;;;2.92;2.72;;;6.90;95.80;;;;;;5011164;28;21016;-73
2023/02/15 00:46:06;;;;;;;2.92;2.70;;;6.80;95.40;;;;;;4995260;28;20249;-74
2023/02/15 00:48:33;;;;;;;4.72;2.58;;;6.80;95.30;;;;;;5026024;28;20226;-74
2023/02/15 00:51:01;;;;;;;2.63;2.42;;;6.90;95.40;;;;;;5009515;28;21556;-74
2023/02/15 00:53:29;;;;;;;2.90;2.70;;;6.80;95.60;;;;;;5029382;28;20702;-74
2023/02/15 00:55:56;;;;;;;2.45;2.35;;;6.90;95.50;;;;;;5027973;28;20287;-74
2023/02/15 00:58:23;;;;;;;2.38;2.25;;;6.80;95.30;;;;;;5024740;28;20358;-74
2023/02/15 01:00:53;;;;;;;2.60;2.50;;;6.90;95.40;;;;;;5027874;28;20306;-74
2023/02/15 01:03:21;;;;;;;2.95;2.75;;;6.90;95.50;;;;;;5027130;28;20283;-74
2023/02/15 01:05:49;;;;;;;3.05;2.85;;;6.90;95.50;;;;;;5025999;28;20287;-74
2023/02/15 01:08:17;;;;;;;3.22;3.03;;;6.90;95.50;;;;;;5027224;28;20297;-74
2023/02/15 01:10:46;;;;;;;2.70;2.50;;;6.90;95.40;;;;;;5026958;28;20287;-74
2023/02/15 01:13:16;;;;;;;3.60;3.30;;;6.90;95.50;;;;;;5010605;28;20198;-73
2023/02/15 01:15:43;;;;;;;3.50;3.20;;;6.90;95.70;;;;;;5013844;28;20258;-74
2023/02/15 01:18:12;;;;;;;3.05;2.85;;;6.90;95.50;;;;;;5030067;28;20686;-74
2023/02/15 01:20:41;;;;;;;2.70;2.60;;;6.90;95.40;;;;;;5023527;28;20224;-75
2023/02/15 01:23:08;;;;;;;2.63;2.50;;;6.90;95.30;;;;;;5028095;28;20572;-75
2023/02/15 01:25:37;;;;;;;2.83;2.67;;;6.90;95.40;;;;;;5029168;28;20295;-74
2023/02/15 01:28:05;;;;;;;2.72;2.53;;;6.80;95.50;;;;;;5010256;28;20298;-75
2023/02/15 01:30:33;;;;;;;2.40;2.30;;;6.80;95.50;;;;;;5011630;28;20235;-75
2023/02/15 01:33:01;;;;;;;3.13;2.92;;;6.70;95.60;;;;;;5026172;28;20195;-76
2023/02/15 01:35:30;;;;;;;2.78;2.58;;;6.70;95.60;;;;;;5026198;28;20222;-74
2023/02/15 01:37:57;;;;;;;2.60;2.50;;;6.60;95.90;;;;;;5028950;28;20266;-74
2023/02/15 01:40:25;;;;;;;3.10;2.90;;;6.40;96.00;;;;;;5029435;28;20326;-74
2023/02/15 01:42:53;;;;;;;3.00;2.80;;;6.30;96.10;;;;;;5027552;28;20326;-74
2023/02/15 01:45:23;;;;;;;2.92;2.72;;;6.30;96.20;;;;;;5024039;28;20251;-72
2023/02/15 01:47:55;;;;;;;3.20;2.88;;;6.20;96.30;;;;;;5026114;28;20371;-74
2023/02/15 01:50:26;;;;;;;3.22;2.97;;;6.20;96.40;;;;;;5024259;28;20303;-74
2023/02/15 01:52:59;;;;;;;2.90;2.75;;;6.20;96.60;;;;;;5026898;28;20636;-73
2023/02/15 01:55:32;;;;;;;3.55;3.28;;;6.30;96.70;;;;;;5020043;28;20223;-73
2023/02/15 01:57:59;;;;;;;3.25;3.05;;;6.30;96.70;;;;;;5028743;28;20239;-74
2023/02/15 02:00:26;;;;;;;3.40;3.20;;;6.30;97.10;;;;;;5026410;28;20644;-74
2023/02/15 02:02:56;;;;;;;3.13;2.92;;;6.30;96.40;;;;;;5027334;28;20656;-74
2023/02/15 02:05:24;;;;;;;3.33;3.13;;;6.30;96.50;;;;;;5030140;28;20243;-74
2023/02/15 02:07:53;;;;;;;2.75;2.55;;;6.20;96.50;;;;;;5000758;28;20296;-72
2023/02/15 02:10:24;;;;;;;2.83;2.72;;;6.20;96.60;;;;;;5022451;28;20306;-74
2023/02/15 02:12:54;;;;;;;3.35;2.63;;;6.20;96.50;;;;;;5010090;28;20573;-74
2023/02/15 02:15:27;;;;;;;3.03;2.78;;;6.20;96.50;;;;;;5031426;28;20247;-74
2023/02/15 02:18:11;;;;;;;3.00;2.88;;;6.10;96.60;;;;;;5028003;28;20302;-74
2023/02/15 02:21:05;;;;;;;3.00;2.80;;;6.10;96.70;;;;;;5028073;28;20302;-74
2023/02/15 02:23:45;;;;;;;2.53;2.42;;;6.10;96.80;;;;;;5012596;28;20307;-74
2023/02/15 02:26:57;;;;;;;2.83;2.63;;;6.10;96.80;;;;;;5030207;28;20245;-74
2023/02/15 02:30:15;;;;;;;3.05;2.83;;;6.10;97.10;;;;;;5029370;28;20265;-74
2023/02/15 02:33:10;;;;;;;2.85;2.75;;;6.10;96.80;;;;;;5018726;28;20192;-74
2023/02/15 02:35:43;;;;;;;3.00;2.80;;;6.10;96.70;;;;;;5031424;28;20635;-74
2023/02/15 02:38:19;;;;;;;3.05;2.85;;;6.10;96.70;;;;;;5030408;28;20254;-74
2023/02/15 02:40:56;;;;;;;2.83;2.63;;;6.10;96.70;;;;;;5027881;28;20261;-74
2023/02/15 02:43:30;;;;;;;2.40;2.30;;;6.10;96.80;;;;;;5030086;28;20290;-74
2023/02/15 02:46:01;;;;;;;2.95;2.83;;;6.10;96.70;;;;;;5029674;28;20279;-74
2023/02/15 02:48:33;;;;;;;3.22;3.03;;;6.10;96.50;;;;;;5002526;28;20228;-74
2023/02/15 02:51:00;;;;;;;3.08;2.90;;;6.10;96.40;;;;;;5029430;28;20257;-74
2023/02/15 02:53:32;;;;;;;2.80;2.60;;;6.10;96.50;;;;;;5029540;28;20307;-74
2023/02/15 02:56:05;;;;;;;2.58;2.40;;;6.10;96.50;;;;;;5027772;28;20290;-75
2023/02/15 02:58:38;;;;;;;2.67;2.58;;;6.10;96.60;;;;;;5034480;28;20306;-73
2023/02/15 03:01:14;;;;;;;3.03;2.83;;;6.00;96.60;;;;;;5030248;28;20314;-73
2023/02/15 03:03:45;;;;;;;3.00;2.80;;;6.00;96.90;;;;;;5017213;28;20762;-73
2023/02/15 03:06:17;;;;;;;3.10;2.90;;;5.90;96.80;;;;;;5029304;28;20635;-73
2023/02/15 03:08:48;;;;;;;2.60;2.50;;;6.00;97.20;;;;;;5029160;28;20699;-73
2023/02/15 03:11:16;;;;;;;2.60;2.50;;;6.00;97.40;;;;;;5027725;28;20627;-73
2023/02/15 03:13:45;;;;;;;3.30;3.10;;;6.00;97.30;;;;;;5009101;28;20215;-73
2023/02/15 03:16:26;;;;;;;2.92;2.72;;;6.00;97.30;;;;;;5014833;28;20231;-73
2023/02/15 03:18:59;;;;;;;2.85;2.70;;;5.90;97.30;;;;;;5028475;28;20278;-73
2023/02/15 03:21:33;;;;;;;2.95;2.75;;;5.90;97.30;;;;;;5027962;28;20302;-73
2023/02/15 03:24:05;;;;;;;2.70;2.50;;;5.90;97.40;;;;;;5027998;28;20313;-73
2023/02/15 03:26:35;;;;;;;3.10;2.90;;;5.90;97.10;;;;;;5026569;28;20557;-74
2023/02/15 03:29:04;;;;;;;2.92;2.70;;;5.90;97.30;;;;;;5027689;28;20250;-73
2023/02/15 03:31:36;;;;;;;3.00;2.80;;;5.90;97.20;;;;;;5029368;28;20276;-74
2023/02/15 03:34:09;;;;;;;2.80;2.60;;;5.80;97.20;;;;;;5032153;28;20258;-74
2023/02/15 03:36:43;;;;;;;2.88;2.67;;;5.80;97.20;;;;;;5012128;28;20195;-73
2023/02/15 03:39:17;;;;;;;2.80;2.70;;;5.80;97.20;;;;;;5016954;28;20226;-72
2023/02/15 03:41:50;;;;;;;2.60;2.40;;;5.80;97.20;;;;;;5033720;28;20246;-73
2023/02/15 03:44:24;;;;;;;3.08;2.88;;;5.70;97.20;;;;;;5032795;28;20246;-74
2023/02/15 03:46:59;;;;;;;2.88;2.40;;;5.70;97.30;;;;;;5032218;28;20206;-74
2023/02/15 03:49:32;;;;;;;2.97;2.78;;;5.60;97.30;;;;;;5028519;28;20314;-74
2023/02/15 03:52:00;;;;;;;2.58;2.47;;;5.60;97.30;;;;;;5026404;28;20311;-74
2023/02/15 03:54:46;;;;;;;2.85;2.65;;;5.60;97.20;;;;;;5029289;28;20298;-73
2023/02/15 04:03:11;;;;;;;3.30;3.10;;;5.60;97.70;;;;;;5025271;28;20202;-74
2023/02/15 04:05:40;;;;;;;2.88;2.65;;;5.60;97.80;;;;;;5027939;28;20346;-74
2023/02/15 04:08:07;;;;;;;2.90;2.70;;;5.50;98.00;;;;;;5010724;28;20273;-74
2023/02/15 04:10:51;;;;;;;3.10;2.90;;;5.50;97.90;;;;;;5028062;28;20604;-73
2023/02/15 04:13:19;;;;;;;3.15;2.95;;;5.50;97.90;;;;;;5012287;28;20195;-74
2023/02/15 04:16:02;;;;;;;2.83;2.72;;;5.40;98.10;;;;;;5013048;28;20291;-74
2023/02/15 04:26:45;;;;;;;3.22;3.03;;;5.50;97.80;;;;;;5028281;28;20222;-73
2023/02/15 04:29:12;;;;;;;2.95;2.75;;;5.40;97.80;;;;;;5010396;28;20234;-73
2023/02/15 04:31:39;;;;;;;2.72;2.63;;;5.40;98.10;;;;;;5030191;28;20227;-72
2023/02/15 04:34:06;;;;;;;2.80;2.60;;;5.40;98.00;;;;;;5028734;28;20223;-72
2023/02/15 04:36:35;;;;;;;2.70;2.50;;;5.40;98.10;;;;;;5028091;28;20657;-72
2023/02/15 04:39:02;;;;;;;2.63;2.53;;;5.40;98.00;;;;;;5029817;28;20332;-72
2023/02/15 04:41:29;;;;;;;2.85;2.67;;;5.40;98.00;;;;;;5028367;28;20258;-74
2023/02/15 04:43:57;;;;;;;3.15;2.95;;;5.30;98.00;;;;;;5024832;28;20651;-74
2023/02/15 04:46:24;;;;;;;2.80;2.60;;;5.30;98.20;;;;;;5027280;28;20227;-74
2023/02/15 04:48:51;;;;;;;3.25;3.05;;;5.30;98.20;;;;;;5024114;28;20310;-73
2023/02/15 04:51:18;;;;;;;3.03;2.83;;;5.20;98.10;;;;;;5024565;28;20283;-74
2023/02/15 04:53:47;;;;;;;3.60;3.30;;;5.10;98.20;;;;;;5027396;28;20689;-73
2023/02/15 04:56:14;;;;;;;3.20;3.00;;;5.10;98.20;;;;;;5030326;28;20296;-74
2023/02/15 04:58:41;;;;;;;3.03;2.83;;;5.10;98.40;;;;;;5027174;28;20307;-73
2023/02/15 05:01:09;;;;;;;3.30;3.10;;;5.10;98.40;;;;;;5010213;28;20222;-73
2023/02/15 05:03:36;;;;;;;3.50;3.17;;;5.00;98.40;;;;;;5026015;28;20250;-73
2023/02/15 05:06:03;;;;;;;3.25;3.05;;;5.00;98.50;;;;;;5030912;28;20206;-74
2023/02/15 05:08:31;;;;;;;3.20;3.00;;;5.00;98.60;;;;;;5009651;28;20812;-73
2023/02/15 05:11:00;;;;;;;3.20;3.00;;;5.00;98.80;;;;;;5026440;28;20291;-72
2023/02/15 05:13:27;;;;;;;3.50;3.30;;;5.00;98.70;;;;;;5026396;28;20246;-73
2023/02/15 05:15:54;;;;;;;2.70;2.60;;;5.00;98.80;;;;;;5028354;28;20199;-74
2023/02/15 05:18:22;;;;;;;3.75;3.45;;;5.00;98.90;;;;;;5010938;28;20775;-74
2023/02/15 05:20:50;;;;;;;4.15;3.85;;;5.00;98.80;;;;;;5024084;28;20302;-74
2023/02/15 05:23:17;;;;;;;4.20;3.80;;;5.00;99.00;;;;;;5025365;28;20720;-74
2023/02/15 05:28:35;;;;;;;4.30;4.00;;;5.00;98.70;;;;;;5023666;28;20280;-74
2023/02/15 05:31:10;;;;;;;4.93;4.40;;;5.10;98.50;;;;;;5024856;28;20290;-73
2023/02/15 05:33:38;;;;;;;4.45;4.05;;;5.10;98.70;;;;;;5030475;28;20306;-73
2023/02/15 05:36:06;;;;;;;3.67;3.45;;;5.10;98.50;;;;;;5027961;28;20258;-75
2023/02/15 05:38:33;;;;;;;3.88;3.58;;;5.10;98.50;;;;;;5023706;28;20774;-74
2023/02/15 05:41:01;;;;;;;3.90;3.60;;;5.10;98.50;;;;;;5007225;28;20310;-74
2023/02/15 05:43:28;;;;;;;5.20;3.70;;;5.00;98.60;;;;;;5024148;28;20219;-72
2023/02/15 05:45:56;;;;;;;3.92;3.47;;;5.00;98.80;;;;;;5027902;28;20235;-74
2023/02/15 05:48:25;;;;;;;3.75;3.45;;;4.90;99.10;;;;;;5025608;28;20255;-74
2023/02/15 05:50:59;;;;;;;3.45;3.25;;;4.80;99.10;;;;;;5026583;28;20312;-73
2023/02/15 05:53:27;;;;;;;3.53;3.33;;;4.70;99.10;;;;;;5028358;28;20215;-73
2023/02/15 05:55:58;;;;;;;3.80;3.60;;;4.70;99.10;;;;;;5031339;28;20223;-73
2023/02/15 05:58:26;;;;;;;3.17;2.97;;;4.70;99.10;;;;;;5027445;28;20297;-73
2023/02/15 06:00:56;;;;;;;3.35;3.15;;;4.70;99.10;;;;;;5028731;28;21071;-70
2023/02/15 06:03:25;;;;;;;3.50;3.20;;;4.70;99.10;;;;;;5026183;28;20235;-73
2023/02/15 06:05:52;;;;;;;3.53;3.33;;;4.60;99.20;;;;;;5032468;28;20199;-73
2023/02/15 06:08:19;;;;;;;3.30;3.10;;;4.60;99.20;;;;;;5029823;28;20311;-73
2023/02/15 06:10:47;;;;;;;3.30;3.10;;;4.70;99.30;;;;;;5011275;28;20191;-73
2023/02/15 06:13:14;;;;;;;2.90;2.70;;;4.60;99.30;;;;;;5024691;28;20295;-71
2023/02/15 06:15:41;;;;;;;3.60;3.40;;;4.70;99.90;;;;;;5033624;28;20233;-74
2023/02/15 06:18:09;;;;;;;3.88;3.67;;;4.60;99.90;;;;;;5023185;28;20302;-73
2023/02/15 06:20:36;;;;;;;3.22;3.03;;;4.60;99.80;;;;;;5007894;28;20222;-73
2023/02/15 06:23:03;;;;;;;3.92;3.63;;;4.60;99.70;;;;;;5031247;28;20299;-74
2023/02/15 06:25:30;;;;;;;3.40;3.20;;;4.60;99.90;;;;;;5028895;28;20294;-72
2023/02/15 06:27:57;;;;;;;3.88;3.67;;;4.70;99.90;;;;;;5029675;28;20243;-75
2023/02/15 06:30:24;;;;;;;3.63;3.42;;;4.70;99.50;;;;;;5026499;28;20365;-74
2023/02/15 06:32:52;;;;;;;3.35;3.15;;;4.70;99.50;;;;;;5007656;28;20235;-75
2023/02/15 06:35:21;;;;;;;4.13;3.83;;;4.70;99.70;;;;;;5025635;28;20310;-74
2023/02/15 06:37:49;;;;;;;3.60;3.30;;;4.60;99.60;;;;;;5028958;28;20597;-74
2023/02/15 06:40:17;;;;;;;2.95;2.78;;;4.70;99.50;;;;;;5026329;28;20663;-74
2023/02/15 06:42:45;;;;;;;3.60;3.40;;;4.70;99.40;;;;;;5027784;28;20295;-75
2023/02/15 06:45:12;;;;;;;3.40;3.20;;;4.70;99.40;;;;;;5033009;28;20285;-74
2023/02/15 06:47:40;;;;;;;3.58;3.38;;;4.70;99.40;;;;;;5028306;28;20279;-72
2023/02/15 06:50:08;;;;;;;2.83;2.72;;;4.70;99.90;;;;;;5026553;28;20812;-73
2023/02/15 06:52:37;;;;;;;3.33;3.13;;;4.60;99.90;;;;;;5008198;28;20198;-72
2023/02/15 06:55:04;;;;;;;2.95;2.75;;;4.60;99.90;;;;;;5023767;28;20247;-72
2023/02/15 06:57:32;;;;;;;3.30;3.10;;;4.60;99.90;;;;;;5026548;28;20279;-72
2023/02/15 07:00:00;;;;;;;2.92;2.83;;;4.50;99.90;;;;;;5027275;28;20628;-72
2023/02/15 07:02:27;;;;;;;3.33;3.13;;;4.50;99.90;;;;;;5029158;28;20265;-73
2023/02/15 07:04:54;;;;;;;2.95;2.67;;;4.60;99.90;;;;;;5007995;28;20660;-73
2023/02/15 07:07:21;;;;;;;3.20;3.00;;;4.70;99.80;;;;;;5027574;28;20303;-72
2023/02/15 07:09:49;;;;;;;3.50;3.13;;;4.80;99.60;;;;;;5026424;28;20282;-73
2023/02/15 07:15:04;;;;;;;3.42;3.22;;;4.90;99.50;;;;;;5020593;28;20226;-73
2023/02/15 07:17:31;;;;;;;3.60;3.40;;;4.90;99.40;;;;;;5025745;28;20200;-73
2023/02/15 07:19:58;;;;;;;3.40;3.20;;;5.00;99.50;;;;;;5027247;28;20944;-73
2023/02/15 07:22:25;;;;;;;3.22;3.03;;;4.90;99.90;;;;;;5024281;28;20306;-72
2023/02/15 07:24:54;;;;;;;2.95;2.75;;;4.90;99.90;;;;;;5027150;28;20243;-74
2023/02/15 07:27:22;;;;;;;3.90;3.65;;;4.90;99.90;;;;;;5023383;28;20202;-74
2023/02/15 07:29:49;;;;;;;3.33;3.13;;;4.80;99.90;;;;;;5026465;28;20306;-73
2023/02/15 07:32:16;;;;;;;3.78;3.47;;;4.80;99.90;;;;;;5004639;28;20287;-72
2023/02/15 07:34:43;;;;;;;4.13;3.67;;;5.50;99.90;;;;;;5025327;28;20349;-73
2023/02/15 07:37:10;;;;;;;4.32;3.95;;;6.60;99.90;;;;;;5010590;28;20709;-73
2023/02/15 07:39:37;;;;;;;6.30;4.30;;;7.70;99.50;;;;;;5031489;28;20247;-72
2023/02/15 07:42:06;;;;;;;5.40;4.90;;;8.80;98.20;;;;;;5029427;28;20302;-76
2023/02/15 07:44:35;;;;;;;5.22;4.65;;;9.50;96.60;;;;;;5024735;28;20322;-73
2023/02/15 07:47:02;;;;;;;5.55;4.45;;;10.10;95.90;;;;;;5026911;28;20728;-75
2023/02/15 07:49:29;;;;;;;4.15;3.85;;;10.60;95.00;;;;;;5024561;28;20346;-74
2023/02/15 07:51:56;;;;;;;3.80;3.45;;;11.10;94.20;;;;;;5025817;28;20290;-75
2023/02/15 07:54:23;;;;;;;4.20;3.80;;;11.40;93.40;;;;;;5023049;28;20314;-75
2023/02/15 07:56:50;;;;;;;3.83;3.53;;;11.60;93.20;;;;;;5010305;28;20229;-75
2023/02/15 07:59:18;;;;;;;5.35;4.55;;;11.80;93.10;;;;;;5006505;28;20717;-75
2023/02/15 08:01:45;;;;;;;4.05;3.75;;;12.00;93.30;;;;;;5023311;28;20384;-75
2023/02/15 08:04:12;;;;;;;8.23;4.05;;;12.30;92.70;;;;;;5028645;28;20255;-75
2023/02/15 08:06:39;;;;;;;4.32;3.92;;;12.60;92.50;;;;;;5026709;28;20282;-74
2023/02/15 08:09:08;;;;;;;4.00;3.70;;;12.70;92.00;;;;;;5020991;28;20315;-72
2023/02/15 08:11:41;;;;;;;4.90;4.45;;;13.00;92.00;;;;;;5017746;28;20777;-75
2023/02/15 08:14:09;;;;;;;4.25;3.85;;;13.30;91.90;;;;;;5023240;28;20222;-74
2023/02/15 08:16:39;;;;;;;3.67;3.38;;;13.50;91.20;;;;;;5025931;28;20290;-74
2023/02/15 08:19:09;;;;;;;4.18;3.25;;;13.40;91.00;;;;;;5029513;28;20720;-75
2023/02/15 08:21:37;;;;;;;3.53;3.22;;;13.50;90.80;;;;;;5021737;28;20219;-76
2023/02/15 08:24:06;;;;;;;3.83;3.53;;;13.70;90.30;;;;;;5027138;28;20227;-76
2023/02/15 08:26:34;;;;;;;4.80;3.35;;;13.70;90.10;;;;;;5024445;28;20254;-74
2023/02/15 08:29:02;;;;;;;3.20;2.90;;;13.80;90.20;;;;;;5023080;28;20251;-74
2023/02/15 08:31:29;;;;;;;3.38;3.10;;;14.20;89.90;;;;;;5024476;28;20310;-74
2023/02/15 08:33:58;;;;;;;3.90;3.50;;;14.20;87.90;;;;;;5024122;28;20277;-74
2023/02/15 08:36:27;;;;;;;3.63;3.33;;;14.30;89.00;;;;;;5023423;28;20291;-75
2023/02/15 08:38:54;;;;;;;5.18;3.92;;;14.50;88.70;;;;;;5024770;28;20231;-76
2023/02/15 08:41:23;;;;;;;4.22;3.45;;;14.50;88.90;;;;;;5026700;28;20306;-77
2023/02/15 08:43:53;;;;;;;6.35;4.05;;;14.50;89.50;;;;;;5024874;28;20251;-74
2023/02/15 08:46:21;;;;;;;4.93;3.75;;;14.70;88.10;;;;;;5023951;28;20286;-75
2023/02/15 08:48:48;;;;;;;5.32;4.13;;;15.00;87.50;;;;;;5027954;28;20774;-75
2023/02/15 08:51:18;;;;;;;4.05;3.50;;;15.00;86.50;;;;;;5028586;28;20279;-75
2023/02/15 08:53:48;;;;;;;3.88;3.50;;;15.00;87.40;;;;;;5021535;28;20311;-74
2023/02/15 08:56:16;;;;;;;3.92;3.53;;;15.10;87.40;;;;;;5027479;28;20213;-76
2023/02/15 08:58:43;;;;;;;4.60;3.65;;;15.30;86.30;;;;;;4988966;28;20255;-74
2023/02/15 09:01:11;;;;;;;3.55;3.25;;;15.50;86.30;;;;;;5026034;28;20247;-73
2023/02/15 09:03:39;;;;;;;4.28;3.50;;;15.70;86.50;;;;;;5022592;28;20256;-73
2023/02/15 09:06:07;;;;;;;5.20;3.58;;;15.90;86.30;;;;;;5034979;28;20277;-76
2023/02/15 09:08:36;;;;;;;3.33;3.00;;;16.00;85.70;;;;;;5022145;28;20258;-76
2023/02/15 09:11:07;;;;;;;4.90;3.40;;;16.20;84.60;;;;;;5023784;28;20569;-76
2023/02/15 09:13:35;;;;;;;3.15;2.85;;;16.10;84.60;;;;;;5027865;28;20238;-75
2023/02/15 09:16:03;;;;;;;3.38;3.08;;;15.90;84.90;;;;;;5007573;28;20227;-76
2023/02/15 09:18:31;;;;;;;3.67;3.33;;;15.80;85.10;;;;;;5025860;28;20792;-76
2023/02/15 09:21:04;;;;;;;3.58;3.00;;;15.80;85.00;;;;;;5028493;28;20199;-74
2023/02/15 09:23:31;;;;;;;5.68;3.33;;;15.90;85.70;;;;;;5030179;28;20311;-75
2023/02/15 09:26:03;;;;;;;5.15;3.28;;;15.60;85.30;;;;;;5009604;28;20223;-76
2023/02/15 09:28:32;;;;;;;3.65;3.22;;;15.50;85.50;;;;;;5023573;28;20255;-76
2023/02/15 09:31:06;;;;;;;3.97;3.35;;;15.50;85.10;;;;;;5024222;28;20203;-76
2023/02/15 09:33:34;;;;;;;4.97;2.97;;;15.50;84.20;;;;;;5004874;28;20219;-74
2023/02/15 09:36:01;;;;;;;3.42;3.08;;;15.70;84.20;;;;;;5009080;28;20290;-75
2023/02/15 09:38:28;;;;;;;3.55;3.10;;;15.70;82.20;;;;;;5027528;28;20876;-75
2023/02/15 09:41:07;;;;;;;3.60;3.10;;;16.00;82.50;;;;;;5008193;28;20294;-76
2023/02/15 09:43:40;;;;;;;4.32;2.65;;;16.00;80.60;;;;;;5021794;28;20756;-76
2023/02/15 09:46:22;;;;;;;3.70;2.92;;;16.20;80.80;;;;;;5027602;28;20283;-77
2023/02/15 09:48:53;;;;;;;4.28;3.13;;;16.20;80.20;;;;;;5023342;28;20327;-76
2023/02/15 09:51:35;;;;;;;3.72;3.30;;;16.20;81.20;;;;;;5025805;28;20295;-76
2023/02/15 09:54:31;;;;;;;4.43;3.10;;;16.50;80.90;;;;;;5028476;28;20310;-77
2023/02/15 09:57:07;;;;;;;2.78;2.58;;;16.80;80.00;;;;;;5024125;28;20227;-76
2023/02/15 09:59:40;;;;;;;3.85;3.20;;;16.90;80.50;;;;;;5022626;28;20317;-76
2023/02/15 10:02:24;;;;;;;3.58;3.28;;;16.90;79.80;;;;;;5023363;28;20310;-77
2023/02/15 10:05:01;;;;;;;4.10;3.40;;;16.80;80.10;;;;;;5025977;28;20302;-76
2023/02/15 10:07:44;;;;;;;5.53;3.13;;;16.80;80.40;;;;;;5004394;28;20207;-75
2023/02/15 10:10:21;;;;;;;3.08;2.78;;;17.20;79.80;;;;;;5024698;28;20322;-76
2023/02/15 10:13:03;;;;;;;3.40;3.10;;;17.50;80.00;;;;;;5023372;28;20830;-76
2023/02/15 10:15:44;;;;;;;3.20;2.90;;;17.60;77.40;;;;;;5024342;28;20294;-76
2023/02/15 10:18:32;;;;;;;4.68;2.97;;;17.50;77.10;;;;;;5024766;28;20294;-75
2023/02/15 10:21:05;;;;;;;3.55;3.00;;;17.50;77.60;;;;;;5024965;28;20279;-76
2023/02/15 10:23:48;;;;;;;2.70;2.50;;;17.40;76.50;;;;;;5004986;28;20224;-76
2023/02/15 10:26:19;;;;;;;3.70;2.92;;;17.30;76.90;;;;;;5025581;28;20312;-76
2023/02/15 10:28:51;;;;;;;2.75;2.55;;;17.40;77.90;;;;;;5022103;28;20224;-76
2023/02/15 10:31:25;;;;;;;2.88;2.67;;;17.50;77.60;;;;;;5025255;28;20223;-76
2023/02/15 10:34:05;;;;;;;2.67;2.42;;;17.60;76.90;;;;;;5005515;28;20684;-76
2023/02/15 10:36:46;;;;;;;3.08;2.67;;;17.60;76.70;;;;;;5023544;28;20322;-76
2023/02/15 10:39:20;;;;;;;3.20;2.88;;;17.70;75.10;;;;;;5026504;28;20261;-76
2023/02/15 10:41:55;;;;;;;3.30;2.95;;;17.40;74.40;;;;;;5027323;28;20191;-76
2023/02/15 10:44:36;;;;;;;4.13;2.70;;;17.40;75.10;;;;;;5012135;28;20369;-76
2023/02/15 10:47:23;;;;;;;2.70;2.50;;;17.30;75.40;;;;;;5027483;28;20259;-77
2023/02/15 10:50:27;;;;;;;3.20;2.90;;;17.20;75.30;;;;;;5026984;28;20223;-76
2023/02/15 10:53:11;;;;;;;3.75;2.95;;;17.20;75.00;;;;;;5012152;28;20227;-75
2023/02/15 10:55:51;;;;;;;3.13;2.83;;;17.30;76.10;;;;;;5026759;28;20263;-75
2023/02/15 10:58:33;;;;;;;3.20;2.95;;;17.60;75.60;;;;;;5004554;28;20222;-76
2023/02/15 11:01:09;;;;;;;3.50;2.88;;;17.90;75.00;;;;;;5022609;28;20632;-76
2023/02/15 11:03:51;;;;;;;4.32;3.00;;;18.00;75.40;;;;;;5027565;28;20485;-76
2023/02/15 11:06:21;;;;;;;3.15;2.85;;;18.00;73.70;;;;;;5024851;28;20223;-76
2023/02/15 11:08:51;;;;;;;3.13;2.83;;;18.00;74.40;;;;;;5031132;28;20259;-76
2023/02/15 11:11:24;;;;;;;3.03;2.70;;;18.00;74.20;;;;;;5023595;28;20227;-75
2023/02/15 11:13:55;;;;;;;4.18;2.75;;;17.90;72.60;;;;;;5009383;28;20216;-75
2023/02/15 11:16:27;;;;;;;2.63;2.28;;;17.60;73.00;;;;;;5027895;28;20290;-75
2023/02/15 11:18:59;;;;;;;3.78;2.45;;;17.80;74.40;;;;;;5027208;28;20314;-76
2023/02/15 11:21:32;;;;;;;2.53;2.33;;;18.00;73.10;;;;;;5027630;28;20219;-76
2023/02/15 11:24:02;;;;;;;2.30;2.10;;;18.10;73.10;;;;;;5028503;28;20239;-76
2023/02/15 11:26:35;;;;;;;2.10;1.88;;;18.40;73.10;;;;;;5011560;28;20570;-76
2023/02/15 11:29:09;;;;;;;2.92;2.35;;;18.30;71.10;;;;;;5025525;28;20229;-76
2023/02/15 11:31:45;;;;;;;2.78;2.58;;;18.10;69.80;;;;;;5013359;28;20565;-77
2023/02/15 11:34:20;;;;;;;4.95;2.50;;;17.90;71.10;;;;;;5026994;28;20250;-74
2023/02/15 11:36:50;;;;;;;2.60;2.40;;;17.70;70.30;;;;;;5006610;28;20202;-76
2023/02/15 11:39:19;;;;;;;2.90;2.10;;;17.50;70.40;;;;;;5027334;28;20219;-75
2023/02/15 11:41:51;;;;;;;3.70;2.55;;;17.60;71.30;;;;;;5007165;28;20203;-76
2023/02/15 11:44:23;;;;;;;2.70;2.50;;;17.80;70.90;;;;;;5021152;28;20315;-76
2023/02/15 11:46:52;;;;;;;2.55;2.33;;;17.70;70.80;;;;;;5010131;28;20826;-76
2023/02/15 11:49:26;;;;;;;2.78;2.38;;;17.70;71.30;;;;;;5027777;28;20247;-76
2023/02/15 11:51:55;;;;;;;131.52;39.42;;;17.80;71.30;;;;;;5027872;28;20282;-75
2023/02/15 11:54:27;;;;;;;51.83;19.67;;;17.90;71.30;;;;;;5026469;28;20243;-76
2023/02/15 11:56:57;;;;;;;28.33;11.90;;;18.20;71.30;;;;;;5030913;28;20238;-77
2023/02/15 11:59:31;;;;;;;44.40;14.57;;;18.30;70.70;;;;;;5026746;28;20247;-76
2023/02/15 12:01:59;;;;;;;11.52;6.57;;;18.40;70.00;;;;;;5025609;28;20200;-76
2023/02/15 12:04:31;;;;;;;22.83;10.20;;;18.50;70.10;;;;;;5031436;28;20314;-77
2023/02/15 12:07:02;;;;;;;10.52;5.95;;;18.50;70.10;;;;;;5024152;28;20402;-77
2023/02/15 12:09:35;;;;;;;6.35;3.88;;;18.40;69.70;;;;;;5026844;28;20281;-74
2023/02/15 12:12:23;;;;;;;7.32;2.95;;;18.10;71.10;;;;;;5027685;28;20191;-73
2023/02/15 12:14:52;;;;;;;7.32;3.00;;;18.10;70.00;;;;;;5023259;28;20219;-73
2023/02/15 12:17:23;;;;;;;4.07;2.35;;;17.90;70.60;;;;;;5021797;28;20290;-71
2023/02/15 12:19:52;;;;;;;3.92;3.17;;;17.60;70.20;;;;;;5023879;28;20644;-73
2023/02/15 12:22:24;;;;;;;3.50;2.70;;;17.70;70.90;;;;;;5008523;28;20266;-73
2023/02/15 12:24:55;;;;;;;4.95;2.40;;;17.70;70.60;;;;;;5022679;28;20884;-73
2023/02/15 12:27:25;;;;;;;2.90;2.60;;;17.70;70.40;;;;;;5027056;28;21023;-74
2023/02/15 12:29:57;;;;;;;2.97;2.63;;;17.80;71.10;;;;;;5027432;28;20306;-73
2023/02/15 12:32:27;;;;;;;3.40;2.47;;;17.80;71.00;;;;;;5009823;28;20282;-73
2023/02/15 12:35:00;;;;;;;3.75;2.53;;;17.90;70.70;;;;;;5023999;28;20314;-73
2023/02/15 12:37:31;;;;;;;2.58;2.38;;;18.00;70.90;;;;;;5024177;28;20290;-73
2023/02/15 12:40:00;;;;;;;3.83;2.08;;;17.90;71.00;;;;;;5023450;28;20219;-73
2023/02/15 12:42:31;;;;;;;2.90;2.40;;;18.10;71.30;;;;;;5026121;28;21017;-73
2023/02/15 12:45:01;;;;;;;2.42;2.22;;;18.20;70.80;;;;;;5025203;28;20254;-73
2023/02/15 12:47:31;;;;;;;2.28;2.00;;;18.20;70.60;;;;;;5024395;28;20287;-74
2023/02/15 12:50:25;;;;;;;2.28;2.08;;;18.30;71.20;;;;;;5024313;28;20314;-74
2023/02/15 12:53:06;;;;;;;3.35;2.35;;;18.40;69.80;;;;;;5018968;28;20192;-73
2023/02/15 12:55:33;;;;;;;2.28;2.08;;;18.30;71.70;;;;;;5022900;28;20772;-73
2023/02/15 12:58:17;;;;;;;3.47;2.20;;;18.10;69.80;;;;;;5024106;28;20314;-73
2023/02/15 13:00:45;;;;;;;2.53;2.17;;;18.10;70.30;;;;;;5029657;28;20227;-73
2023/02/15 13:03:19;;;;;;;3.03;2.22;;;18.00;71.30;;;;;;5024582;28;20270;-74
2023/02/15 13:05:50;;;;;;;3.03;2.38;;;18.00;70.30;;;;;;5019327;28;20192;-74
2023/02/15 13:08:20;;;;;;;2.75;2.00;;;18.10;70.80;;;;;;5021242;28;20306;-73
2023/02/15 13:10:56;;;;;;;2.92;2.33;;;18.20;71.20;;;;;;5026678;28;20227;-73
2023/02/15 13:13:27;;;;;;;4.97;2.50;;;18.20;70.00;;;;;;5026596;28;20298;-73
2023/02/15 13:15:57;;;;;;;2.25;1.92;;;18.30;70.80;;;;;;5022858;28;20207;-73
2023/02/15 13:18:32;;;;;;;2.00;1.90;;;18.30;71.60;;;;;;5007348;28;20513;-73
2023/02/15 13:21:05;;;;;;;2.75;2.30;;;18.30;69.90;;;;;;5022129;28;20227;-73
2023/02/15 13:23:32;;;;;;;2.47;2.28;;;18.10;70.40;;;;;;5023712;28;20310;-74
2023/02/15 13:26:03;;;;;;;2.20;1.92;;;18.20;70.80;;;;;;5021831;28;20243;-74
2023/02/15 13:28:39;;;;;;;2.50;2.30;;;18.20;70.30;;;;;;5024056;28;20266;-73
2023/02/15 13:31:13;;;;;;;2.58;2.38;;;18.10;69.90;;;;;;5027115;28;20586;-73
2023/02/15 13:33:46;;;;;;;2.30;2.10;;;18.20;70.30;;;;;;5018590;28;20317;-74
2023/02/15 13:36:22;;;;;;;2.40;1.98;;;18.30;70.60;;;;;;5027478;28;20199;-74